sensor_id;sensor_type;location;lat;lon;timestamp;pressure;altitude;pressure_sealevel;temperature;humidity
66396;BME280;53207;51.378;-1.342;2023-04-26T00:00:16;100524.06;;;20.05;34.87
66396;BME280;53207;51.378;-1.342;2023-04-26T00:02:43;100526.09;;;20.26;34.59
66396;BME280;53207;51.378;-1.342;2023-04-26T00:05:11;100528.15;;;20.32;34.47
66396;BME280;53207;51.378;-1.342;2023-04-26T00:07:38;100529.08;;;20.37;34.73
66396;BME280;53207;51.378;-1.342;2023-04-26T00:10:06;100521.95;;;20.12;34.66
66396;BME280;53207;51.378;-1.342;2023-04-26T00:12:33;100517.45;;;20.06;34.71
66396;BME280;53207;51.378;-1.342;2023-04-26T00:15:01;100521.21;;;20.04;34.69
66396;BME280;53207;51.378;-1.342;2023-04-26T00:17:28;100526.34;;;20.32;34.68
66396;BME280;53207;51.378;-1.342;2023-04-26T00:19:55;100523.69;;;20.06;34.61
66396;BME280;53207;51.378;-1.342;2023-04-26T00:22:23;100516.02;;;20.03;34.63
66396;BME280;53207;51.378;-1.342;2023-04-26T00:24:51;100517.20;;;20.06;34.86
66396;BME280;53207;51.378;-1.342;2023-04-26T00:27:18;100515.83;;;20.05;34.53
66396;BME280;53207;51.378;-1.342;2023-04-26T00:29:45;100516.27;;;19.98;34.60
66396;BME280;53207;51.378;-1.342;2023-04-26T00:32:13;100520.01;;;19.93;34.63
66396;BME280;53207;51.378;-1.342;2023-04-26T00:34:40;100517.27;;;20.30;34.47
66396;BME280;53207;51.378;-1.342;2023-04-26T00:37:07;100511.32;;;20.21;34.52
66396;BME280;53207;51.378;-1.342;2023-04-26T00:39:35;100505.30;;;20.30;34.37
66396;BME280;53207;51.378;-1.342;2023-04-26T00:42:02;100498.76;;;20.30;34.34
66396;BME280;53207;51.378;-1.342;2023-04-26T00:44:29;100487.02;;;20.06;34.30
66396;BME280;53207;51.378;-1.342;2023-04-26T00:46:57;100476.98;;;20.08;34.24
66396;BME280;53207;51.378;-1.342;2023-04-26T00:49:24;100470.28;;;19.95;34.34
66396;BME280;53207;51.378;-1.342;2023-04-26T00:51:51;100470.31;;;19.89;34.39
66396;BME280;53207;51.378;-1.342;2023-04-26T00:54:20;100469.75;;;19.99;34.55
66396;BME280;53207;51.378;-1.342;2023-04-26T00:56:48;100472.11;;;20.24;34.51
66396;BME280;53207;51.378;-1.342;2023-04-26T00:59:15;100472.02;;;20.35;34.35
66396;BME280;53207;51.378;-1.342;2023-04-26T01:01:42;100469.54;;;20.22;34.45
66396;BME280;53207;51.378;-1.342;2023-04-26T01:04:10;100467.89;;;19.89;34.23
66396;BME280;53207;51.378;-1.342;2023-04-26T01:06:37;100465.34;;;20.15;34.23
66396;BME280;53207;51.378;-1.342;2023-04-26T01:09:05;100460.83;;;20.13;34.23
66396;BME280;53207;51.378;-1.342;2023-04-26T01:11:34;100443.06;;;20.21;34.38
66396;BME280;53207;51.378;-1.342;2023-04-26T01:14:02;100436.05;;;20.05;34.29
66396;BME280;53207;51.378;-1.342;2023-04-26T01:16:32;100439.16;;;20.24;34.25
66396;BME280;53207;51.378;-1.342;2023-04-26T01:19:06;100438.56;;;19.74;34.23
66396;BME280;53207;51.378;-1.342;2023-04-26T01:21:34;100436.81;;;20.21;34.25
66396;BME280;53207;51.378;-1.342;2023-04-26T01:24:01;100441.49;;;19.96;34.25
66396;BME280;53207;51.378;-1.342;2023-04-26T01:26:28;100448.66;;;20.27;34.11
66396;BME280;53207;51.378;-1.342;2023-04-26T01:28:56;100459.32;;;19.92;34.26
66396;BME280;53207;51.378;-1.342;2023-04-26T01:31:23;100464.33;;;19.85;34.31
66396;BME280;53207;51.378;-1.342;2023-04-26T01:33:50;100466.69;;;19.93;34.19
66396;BME280;53207;51.378;-1.342;2023-04-26T01:36:17;100468.70;;;19.92;34.19
66396;BME280;53207;51.378;-1.342;2023-04-26T01:38:45;100468.50;;;19.95;34.13
66396;BME280;53207;51.378;-1.342;2023-04-26T01:41:12;100466.45;;;20.11;34.16
66396;BME280;53207;51.378;-1.342;2023-04-26T01:43:39;100463.32;;;19.60;34.18
66396;BME280;53207;51.378;-1.342;2023-04-26T01:46:07;100465.50;;;19.68;34.37
66396;BME280;53207;51.378;-1.342;2023-04-26T01:48:34;100464.40;;;20.09;34.13
66396;BME280;53207;51.378;-1.342;2023-04-26T01:51:01;100468.94;;;19.77;34.22
66396;BME280;53207;51.378;-1.342;2023-04-26T01:53:29;100467.55;;;19.79;34.18
66396;BME280;53207;51.378;-1.342;2023-04-26T01:55:59;100470.11;;;20.01;34.14
66396;BME280;53207;51.378;-1.342;2023-04-26T01:58:26;100474.52;;;19.98;34.15
66396;BME280;53207;51.378;-1.342;2023-04-26T02:00:53;100476.63;;;19.97;34.14
66396;BME280;53207;51.378;-1.342;2023-04-26T02:03:21;100476.46;;;19.94;34.15
66396;BME280;53207;51.378;-1.342;2023-04-26T02:05:48;100477.46;;;19.69;34.17
66396;BME280;53207;51.378;-1.342;2023-04-26T02:08:16;100474.12;;;19.89;34.16
66396;BME280;53207;51.378;-1.342;2023-04-26T02:10:43;100473.24;;;19.87;34.17
66396;BME280;53207;51.378;-1.342;2023-04-26T02:13:10;100464.90;;;19.60;34.20
66396;BME280;53207;51.378;-1.342;2023-04-26T02:15:38;100470.74;;;19.82;34.18
66396;BME280;53207;51.378;-1.342;2023-04-26T02:18:05;100469.61;;;19.77;34.20
66396;BME280;53207;51.378;-1.342;2023-04-26T02:20:32;100469.34;;;19.76;34.18
66396;BME280;53207;51.378;-1.342;2023-04-26T02:23:00;100466.03;;;19.74;34.17
66396;BME280;53207;51.378;-1.342;2023-04-26T02:25:27;100464.27;;;19.74;34.16
66396;BME280;53207;51.378;-1.342;2023-04-26T02:27:54;100463.60;;;19.72;34.17
66396;BME280;53207;51.378;-1.342;2023-04-26T02:30:22;100461.55;;;19.68;34.18
66396;BME280;53207;51.378;-1.342;2023-04-26T02:32:49;100460.69;;;19.71;34.15
66396;BME280;53207;51.378;-1.342;2023-04-26T02:35:19;100462.11;;;19.67;34.19
66396;BME280;53207;51.378;-1.342;2023-04-26T02:37:46;100458.99;;;19.66;34.16
66396;BME280;53207;51.378;-1.342;2023-04-26T02:40:14;100458.67;;;19.60;34.20
66396;BME280;53207;51.378;-1.342;2023-04-26T02:42:42;100459.16;;;19.62;34.15
66396;BME280;53207;51.378;-1.342;2023-04-26T02:45:09;100466.03;;;19.54;34.21
66396;BME280;53207;51.378;-1.342;2023-04-26T02:47:36;100464.83;;;19.52;34.19
66396;BME280;53207;51.378;-1.342;2023-04-26T02:50:05;100461.90;;;19.65;34.06
66396;BME280;53207;51.378;-1.342;2023-04-26T02:52:33;100461.10;;;19.58;34.12
66396;BME280;53207;51.378;-1.342;2023-04-26T02:55:00;100462.00;;;19.56;34.08
66396;BME280;53207;51.378;-1.342;2023-04-26T02:57:27;100462.06;;;19.58;34.08
66396;BME280;53207;51.378;-1.342;2023-04-26T02:59:55;100454.51;;;19.56;34.06
66396;BME280;53207;51.378;-1.342;2023-04-26T03:02:22;100452.35;;;19.49;34.14
66396;BME280;53207;51.378;-1.342;2023-04-26T03:04:49;100450.00;;;19.49;34.10
66396;BME280;53207;51.378;-1.342;2023-04-26T03:07:16;100443.82;;;19.47;34.12
66396;BME280;53207;51.378;-1.342;2023-04-26T03:09:43;100439.02;;;19.26;34.05
66396;BME280;53207;51.378;-1.342;2023-04-26T03:12:11;100438.60;;;19.41;34.11
66396;BME280;53207;51.378;-1.342;2023-04-26T03:14:38;100439.38;;;19.40;34.12
66396;BME280;53207;51.378;-1.342;2023-04-26T03:17:05;100438.55;;;19.41;34.07
66396;BME280;53207;51.378;-1.342;2023-04-26T03:19:33;100437.52;;;19.43;34.04
66396;BME280;53207;51.378;-1.342;2023-04-26T03:22:00;100435.41;;;19.64;34.08
66396;BME280;53207;51.378;-1.342;2023-04-26T03:24:27;100434.45;;;19.39;34.04
66396;BME280;53207;51.378;-1.342;2023-04-26T03:26:55;100434.43;;;19.27;34.14
66396;BME280;53207;51.378;-1.342;2023-04-26T03:29:22;100431.36;;;19.29;34.10
66396;BME280;53207;51.378;-1.342;2023-04-26T03:31:49;100424.99;;;19.33;34.04
66396;BME280;53207;51.378;-1.342;2023-04-26T03:34:17;100422.76;;;19.24;34.11
66396;BME280;53207;51.378;-1.342;2023-04-26T03:36:44;100420.42;;;19.54;34.06
66396;BME280;53207;51.378;-1.342;2023-04-26T03:39:11;100420.46;;;19.27;34.03
66396;BME280;53207;51.378;-1.342;2023-04-26T03:41:38;100418.70;;;19.22;34.07
66396;BME280;53207;51.378;-1.342;2023-04-26T03:44:06;100414.81;;;19.22;34.06
66396;BME280;53207;51.378;-1.342;2023-04-26T03:46:33;100411.27;;;19.25;33.98
66396;BME280;53207;51.378;-1.342;2023-04-26T03:49:00;100406.23;;;19.50;34.00
66396;BME280;53207;51.378;-1.342;2023-04-26T03:51:28;100397.20;;;19.15;34.05
66396;BME280;53207;51.378;-1.342;2023-04-26T03:53:57;100392.25;;;19.22;33.98
66396;BME280;53207;51.378;-1.342;2023-04-26T03:56:24;100394.77;;;19.26;33.88
66396;BME280;53207;51.378;-1.342;2023-04-26T03:58:52;100394.42;;;19.20;33.92
66396;BME280;53207;51.378;-1.342;2023-04-26T04:01:19;100393.69;;;19.16;33.94
66396;BME280;53207;51.378;-1.342;2023-04-26T04:03:46;100395.76;;;19.19;33.90
66396;BME280;53207;51.378;-1.342;2023-04-26T04:06:14;100394.95;;;19.17;33.90
66396;BME280;53207;51.378;-1.342;2023-04-26T04:08:41;100394.95;;;19.10;33.99
66396;BME280;53207;51.378;-1.342;2023-04-26T04:11:08;100394.03;;;19.09;33.96
66396;BME280;53207;51.378;-1.342;2023-04-26T04:13:35;100397.09;;;19.04;34.00
66396;BME280;53207;51.378;-1.342;2023-04-26T04:16:03;100395.19;;;19.27;34.04
66396;BME280;53207;51.378;-1.342;2023-04-26T04:18:30;100389.68;;;19.33;33.95
66396;BME280;53207;51.378;-1.342;2023-04-26T04:20:57;100382.08;;;18.93;34.14
66396;BME280;53207;51.378;-1.342;2023-04-26T04:23:25;100382.69;;;19.26;34.02
66396;BME280;53207;51.378;-1.342;2023-04-26T04:25:52;100379.73;;;19.23;34.04
66396;BME280;53207;51.378;-1.342;2023-04-26T04:28:19;100375.69;;;18.99;34.00
66396;BME280;53207;51.378;-1.342;2023-04-26T04:30:47;100374.47;;;19.21;34.01
66396;BME280;53207;51.378;-1.342;2023-04-26T04:33:14;100376.72;;;18.90;34.08
66396;BME280;53207;51.378;-1.342;2023-04-26T04:35:41;100374.41;;;18.94;34.03
66396;BME280;53207;51.378;-1.342;2023-04-26T04:38:09;100373.66;;;19.02;33.90
66396;BME280;53207;51.378;-1.342;2023-04-26T04:40:36;100377.33;;;18.94;33.99
66396;BME280;53207;51.378;-1.342;2023-04-26T04:43:03;100373.06;;;19.09;34.11
66396;BME280;53207;51.378;-1.342;2023-04-26T04:45:31;100375.68;;;18.87;34.04
66396;BME280;53207;51.378;-1.342;2023-04-26T04:47:58;100373.39;;;19.15;34.01
66396;BME280;53207;51.378;-1.342;2023-04-26T04:50:25;100377.87;;;19.14;34.01
66396;BME280;53207;51.378;-1.342;2023-04-26T04:52:53;100380.03;;;18.84;34.05
66396;BME280;53207;51.378;-1.342;2023-04-26T04:55:20;100377.15;;;19.10;34.03
66396;BME280;53207;51.378;-1.342;2023-04-26T04:57:47;100373.74;;;19.09;34.02
66396;BME280;53207;51.378;-1.342;2023-04-26T05:00:16;100376.88;;;18.61;34.25
66396;BME280;53207;51.378;-1.342;2023-04-26T05:02:43;100377.96;;;19.02;34.10
66396;BME280;53207;51.378;-1.342;2023-04-26T05:05:10;100382.12;;;18.73;34.10
66396;BME280;53207;51.378;-1.342;2023-04-26T05:07:37;100382.52;;;19.01;34.05
66396;BME280;53207;51.378;-1.342;2023-04-26T05:10:06;100384.16;;;19.24;34.04
66396;BME280;53207;51.378;-1.342;2023-04-26T05:12:33;100387.93;;;18.73;34.06
66396;BME280;53207;51.378;-1.342;2023-04-26T05:15:00;100385.80;;;18.71;34.07
66396;BME280;53207;51.378;-1.342;2023-04-26T05:17:28;100388.35;;;18.58;34.19
66396;BME280;53207;51.378;-1.342;2023-04-26T05:19:55;100385.18;;;18.98;34.03
66396;BME280;53207;51.378;-1.342;2023-04-26T05:22:22;100385.77;;;19.10;34.12
66396;BME280;53207;51.378;-1.342;2023-04-26T05:24:50;100386.47;;;18.58;34.23
66396;BME280;53207;51.378;-1.342;2023-04-26T05:27:17;100379.93;;;19.27;33.99
66396;BME280;53207;51.378;-1.342;2023-04-26T05:29:44;100378.56;;;19.20;33.87
66396;BME280;53207;51.378;-1.342;2023-04-26T05:32:12;100373.82;;;19.04;33.78
66396;BME280;53207;51.378;-1.342;2023-04-26T05:34:40;100378.56;;;19.61;33.68
66396;BME280;53207;51.378;-1.342;2023-04-26T05:37:07;100387.59;;;19.20;33.66
66396;BME280;53207;51.378;-1.342;2023-04-26T05:39:34;100392.53;;;19.33;33.54
66396;BME280;53207;51.378;-1.342;2023-04-26T05:42:02;100395.39;;;19.43;33.48
66396;BME280;53207;51.378;-1.342;2023-04-26T05:44:29;100396.17;;;19.54;33.37
66396;BME280;53207;51.378;-1.342;2023-04-26T05:46:56;100397.37;;;19.61;33.31
66396;BME280;53207;51.378;-1.342;2023-04-26T05:49:24;100398.16;;;19.72;33.29
66396;BME280;53207;51.378;-1.342;2023-04-26T05:51:51;100396.56;;;19.83;33.22
66396;BME280;53207;51.378;-1.342;2023-04-26T05:54:18;100391.99;;;19.93;33.16
66396;BME280;53207;51.378;-1.342;2023-04-26T05:56:46;100391.82;;;20.09;32.96
66396;BME280;53207;51.378;-1.342;2023-04-26T05:59:13;100392.19;;;20.10;33.00
66396;BME280;53207;51.378;-1.342;2023-04-26T06:01:40;100395.55;;;20.19;32.85
66396;BME280;53207;51.378;-1.342;2023-04-26T06:04:08;100399.99;;;20.25;32.83
66396;BME280;53207;51.378;-1.342;2023-04-26T06:06:35;100404.76;;;20.06;32.80
66396;BME280;53207;51.378;-1.342;2023-04-26T06:09:02;100401.35;;;20.31;32.74
66396;BME280;53207;51.378;-1.342;2023-04-26T06:11:30;100398.49;;;20.34;32.72
66396;BME280;53207;51.378;-1.342;2023-04-26T06:13:57;100398.35;;;20.13;32.76
66396;BME280;53207;51.378;-1.342;2023-04-26T06:16:24;100400.39;;;20.31;32.73
66396;BME280;53207;51.378;-1.342;2023-04-26T06:18:52;100398.62;;;20.10;32.72
66396;BME280;53207;51.378;-1.342;2023-04-26T06:21:19;100396.88;;;20.09;32.73
66396;BME280;53207;51.378;-1.342;2023-04-26T06:23:46;100389.91;;;20.34;32.77
66396;BME280;53207;51.378;-1.342;2023-04-26T06:26:14;100388.04;;;20.09;32.84
66396;BME280;53207;51.378;-1.342;2023-04-26T06:28:41;100388.20;;;19.84;32.81
66396;BME280;53207;51.378;-1.342;2023-04-26T06:31:08;100390.59;;;20.39;32.73
66396;BME280;53207;51.378;-1.342;2023-04-26T06:33:35;100391.63;;;20.39;32.73
66396;BME280;53207;51.378;-1.342;2023-04-26T06:36:03;100387.25;;;19.83;33.14
66396;BME280;53207;51.378;-1.342;2023-04-26T06:38:31;100378.53;;;20.09;32.84
66396;BME280;53207;51.378;-1.342;2023-04-26T06:40:58;100374.25;;;20.29;32.81
66396;BME280;53207;51.378;-1.342;2023-04-26T06:43:25;100371.81;;;20.24;32.86
66396;BME280;53207;51.378;-1.342;2023-04-26T06:45:53;100370.38;;;20.25;32.85
66396;BME280;53207;51.378;-1.342;2023-04-26T06:48:20;100373.59;;;20.25;32.86
66396;BME280;53207;51.378;-1.342;2023-04-26T06:50:47;100373.11;;;19.80;33.08
66396;BME280;53207;51.378;-1.342;2023-04-26T06:53:15;100375.52;;;20.18;32.92
66396;BME280;53207;51.378;-1.342;2023-04-26T06:55:42;100378.49;;;20.19;32.92
66396;BME280;53207;51.378;-1.342;2023-04-26T06:58:09;100381.89;;;20.10;33.05
66396;BME280;53207;51.378;-1.342;2023-04-26T07:00:36;100379.11;;;19.94;33.01
66396;BME280;53207;51.378;-1.342;2023-04-26T07:03:04;100376.58;;;19.96;32.97
66396;BME280;53207;51.378;-1.342;2023-04-26T07:05:31;100377.34;;;20.22;33.00
66396;BME280;53207;51.378;-1.342;2023-04-26T07:07:59;100376.77;;;19.99;33.08
66396;BME280;53207;51.378;-1.342;2023-04-26T07:10:27;100382.05;;;20.04;33.03
66396;BME280;53207;51.378;-1.342;2023-04-26T07:12:54;100384.93;;;20.23;32.96
66396;BME280;53207;51.378;-1.342;2023-04-26T07:15:21;100378.82;;;20.03;33.01
66396;BME280;53207;51.378;-1.342;2023-04-26T07:17:48;100379.62;;;20.06;33.13
66396;BME280;53207;51.378;-1.342;2023-04-26T07:20:16;100380.65;;;20.08;33.12
66396;BME280;53207;51.378;-1.342;2023-04-26T07:22:43;100380.60;;;20.30;33.11
66396;BME280;53207;51.378;-1.342;2023-04-26T07:25:11;100384.34;;;20.27;33.16
66396;BME280;53207;51.378;-1.342;2023-04-26T07:27:38;100387.06;;;20.07;33.13
66396;BME280;53207;51.378;-1.342;2023-04-26T07:30:06;100385.89;;;20.05;33.17
66396;BME280;53207;51.378;-1.342;2023-04-26T07:32:33;100390.13;;;20.02;33.13
66396;BME280;53207;51.378;-1.342;2023-04-26T07:35:01;100392.42;;;20.03;33.14
66396;BME280;53207;51.378;-1.342;2023-04-26T07:37:28;100393.84;;;20.00;33.16
66396;BME280;53207;51.378;-1.342;2023-04-26T07:39:55;100394.66;;;20.06;33.07
66396;BME280;53207;51.378;-1.342;2023-04-26T07:42:23;100395.57;;;19.77;33.12
66396;BME280;53207;51.378;-1.342;2023-04-26T07:44:50;100395.93;;;19.75;33.10
66396;BME280;53207;51.378;-1.342;2023-04-26T07:47:17;100394.85;;;20.00;33.12
66396;BME280;53207;51.378;-1.342;2023-04-26T07:49:45;100394.03;;;19.98;33.14
66396;BME280;53207;51.378;-1.342;2023-04-26T07:52:12;100396.56;;;20.23;33.07
66396;BME280;53207;51.378;-1.342;2023-04-26T07:54:39;100396.93;;;20.02;33.07
66396;BME280;53207;51.378;-1.342;2023-04-26T07:57:06;100396.54;;;19.97;33.07
66396;BME280;53207;51.378;-1.342;2023-04-26T07:59:34;100396.30;;;19.98;33.03
66396;BME280;53207;51.378;-1.342;2023-04-26T08:02:01;100400.80;;;20.21;33.01
66396;BME280;53207;51.378;-1.342;2023-04-26T08:04:31;100404.16;;;19.95;33.03
66396;BME280;53207;51.378;-1.342;2023-04-26T08:06:59;100403.93;;;20.16;33.01
66396;BME280;53207;51.378;-1.342;2023-04-26T08:09:26;100401.62;;;20.13;33.00
66396;BME280;53207;51.378;-1.342;2023-04-26T08:11:53;100401.21;;;19.82;33.10
66396;BME280;53207;51.378;-1.342;2023-04-26T08:14:21;100399.93;;;20.15;32.98
66396;BME280;53207;51.378;-1.342;2023-04-26T08:16:48;100397.93;;;20.10;32.99
66396;BME280;53207;51.378;-1.342;2023-04-26T08:19:15;100392.05;;;20.07;33.02
66396;BME280;53207;51.378;-1.342;2023-04-26T08:21:42;100389.55;;;20.10;32.96
66396;BME280;53207;51.378;-1.342;2023-04-26T08:24:10;100387.26;;;20.07;32.98
66396;BME280;53207;51.378;-1.342;2023-04-26T08:26:37;100381.19;;;20.12;32.93
66396;BME280;53207;51.378;-1.342;2023-04-26T08:29:04;100379.62;;;20.08;32.89
66396;BME280;53207;51.378;-1.342;2023-04-26T08:31:32;100378.62;;;20.15;32.88
66396;BME280;53207;51.378;-1.342;2023-04-26T08:33:59;100377.75;;;20.10;32.94
66396;BME280;53207;51.378;-1.342;2023-04-26T08:36:26;100379.20;;;20.18;32.85
66396;BME280;53207;51.378;-1.342;2023-04-26T08:38:53;100380.22;;;20.08;32.95
66396;BME280;53207;51.378;-1.342;2023-04-26T08:41:22;100377.49;;;19.69;32.85
66396;BME280;53207;51.378;-1.342;2023-04-26T08:43:49;100379.91;;;19.88;32.91
66396;BME280;53207;51.378;-1.342;2023-04-26T08:46:18;100383.81;;;19.89;32.89
66396;BME280;53207;51.378;-1.342;2023-04-26T08:48:53;100380.39;;;19.95;32.85
66396;BME280;53207;51.378;-1.342;2023-04-26T08:51:21;100383.44;;;20.02;33.04
66396;BME280;53207;51.378;-1.342;2023-04-26T08:53:50;100383.68;;;19.95;33.10
66396;BME280;53207;51.378;-1.342;2023-04-26T08:56:21;100379.86;;;20.11;32.90
66396;BME280;53207;51.378;-1.342;2023-04-26T08:58:49;100380.45;;;20.16;32.85
66396;BME280;53207;51.378;-1.342;2023-04-26T09:01:17;100380.99;;;19.83;32.95
66396;BME280;53207;51.378;-1.342;2023-04-26T09:03:46;100384.20;;;20.10;32.89
66396;BME280;53207;51.378;-1.342;2023-04-26T09:06:14;100385.62;;;19.61;32.87
66396;BME280;53207;51.378;-1.342;2023-04-26T09:08:43;100386.04;;;19.80;32.93
66396;BME280;53207;51.378;-1.342;2023-04-26T09:11:11;100379.06;;;19.88;32.86
66396;BME280;53207;51.378;-1.342;2023-04-26T09:13:39;100377.40;;;20.06;32.90
66396;BME280;53207;51.378;-1.342;2023-04-26T09:16:06;100383.10;;;19.90;32.84
66396;BME280;53207;51.378;-1.342;2023-04-26T09:18:33;100384.58;;;20.06;32.90
66396;BME280;53207;51.378;-1.342;2023-04-26T09:21:07;100380.89;;;19.86;32.85
66396;BME280;53207;51.378;-1.342;2023-04-26T09:23:35;100380.54;;;20.15;32.77
66396;BME280;53207;51.378;-1.342;2023-04-26T09:26:18;100380.05;;;19.50;32.92
66396;BME280;53207;51.378;-1.342;2023-04-26T09:28:46;100383.65;;;19.84;32.86
66396;BME280;53207;51.378;-1.342;2023-04-26T09:31:35;100384.02;;;20.03;32.85
66396;BME280;53207;51.378;-1.342;2023-04-26T09:34:03;100381.35;;;19.91;32.71
66396;BME280;53207;51.378;-1.342;2023-04-26T09:36:30;100384.30;;;19.51;32.80
66396;BME280;53207;51.378;-1.342;2023-04-26T09:38:58;100386.36;;;19.87;32.72
66396;BME280;53207;51.378;-1.342;2023-04-26T09:41:41;100388.22;;;20.09;32.72
66396;BME280;53207;51.378;-1.342;2023-04-26T09:44:20;100389.91;;;20.08;32.73
66396;BME280;53207;51.378;-1.342;2023-04-26T09:46:57;100392.67;;;19.82;32.77
66396;BME280;53207;51.378;-1.342;2023-04-26T09:49:25;100392.13;;;20.06;32.73
66396;BME280;53207;51.378;-1.342;2023-04-26T09:52:02;100389.61;;;20.10;32.69
66396;BME280;53207;51.378;-1.342;2023-04-26T09:54:38;100391.11;;;19.82;32.76
66396;BME280;53207;51.378;-1.342;2023-04-26T09:57:06;100393.23;;;20.11;32.67
66396;BME280;53207;51.378;-1.342;2023-04-26T09:59:41;100395.10;;;19.94;32.80
66396;BME280;53207;51.378;-1.342;2023-04-26T10:02:13;100394.48;;;19.95;32.80
66396;BME280;53207;51.378;-1.342;2023-04-26T10:04:44;100393.24;;;20.03;32.70
66396;BME280;53207;51.378;-1.342;2023-04-26T10:07:12;100393.69;;;19.99;32.71
66396;BME280;53207;51.378;-1.342;2023-04-26T10:09:40;100393.62;;;19.96;32.77
66396;BME280;53207;51.378;-1.342;2023-04-26T10:12:10;100388.69;;;19.99;32.76
66396;BME280;53207;51.378;-1.342;2023-04-26T10:14:38;100386.08;;;19.97;32.73
66396;BME280;53207;51.378;-1.342;2023-04-26T10:17:05;100387.54;;;19.97;32.72
66396;BME280;53207;51.378;-1.342;2023-04-26T10:19:33;100383.66;;;19.97;32.71
66396;BME280;53207;51.378;-1.342;2023-04-26T10:22:04;100384.65;;;19.73;32.70
66396;BME280;53207;51.378;-1.342;2023-04-26T10:24:33;100385.18;;;19.86;32.79
66396;BME280;53207;51.378;-1.342;2023-04-26T10:27:00;100384.58;;;19.58;32.83
66396;BME280;53207;51.378;-1.342;2023-04-26T10:30:05;100384.37;;;19.85;32.73
66396;BME280;53207;51.378;-1.342;2023-04-26T10:32:32;100379.38;;;19.78;32.76
66396;BME280;53207;51.378;-1.342;2023-04-26T10:35:36;100376.24;;;19.73;32.81
66396;BME280;53207;51.378;-1.342;2023-04-26T10:38:11;100371.25;;;19.74;32.79
66396;BME280;53207;51.378;-1.342;2023-04-26T10:40:39;100369.83;;;19.78;32.73
66396;BME280;53207;51.378;-1.342;2023-04-26T10:43:38;100369.79;;;19.76;32.74
66396;BME280;53207;51.378;-1.342;2023-04-26T10:46:33;100366.20;;;19.76;32.70
66396;BME280;53207;51.378;-1.342;2023-04-26T10:49:12;100363.07;;;19.73;32.72
66396;BME280;53207;51.378;-1.342;2023-04-26T10:51:40;100365.42;;;19.65;32.81
66396;BME280;53207;51.378;-1.342;2023-04-26T10:54:07;100362.00;;;19.60;32.85
66396;BME280;53207;51.378;-1.342;2023-04-26T10:56:50;100361.08;;;19.61;32.83
66396;BME280;53207;51.378;-1.342;2023-04-26T10:59:20;100357.78;;;19.66;32.74
66396;BME280;53207;51.378;-1.342;2023-04-26T11:01:48;100352.93;;;19.61;32.77
66396;BME280;53207;51.378;-1.342;2023-04-26T11:04:15;100354.50;;;19.59;32.78
66396;BME280;53207;51.378;-1.342;2023-04-26T11:06:50;100352.56;;;19.60;32.77
66396;BME280;53207;51.378;-1.342;2023-04-26T11:09:34;100355.91;;;19.55;32.80
66396;BME280;53207;51.378;-1.342;2023-04-26T11:12:03;100356.00;;;19.47;32.84
66396;BME280;53207;51.378;-1.342;2023-04-26T11:14:32;100356.85;;;19.49;32.82
66396;BME280;53207;51.378;-1.342;2023-04-26T11:17:02;100356.05;;;19.42;32.89
66396;BME280;53207;51.378;-1.342;2023-04-26T11:19:29;100358.10;;;19.47;32.82
66396;BME280;53207;51.378;-1.342;2023-04-26T11:21:57;100357.11;;;19.21;32.84
66396;BME280;53207;51.378;-1.342;2023-04-26T11:24:25;100357.94;;;19.44;32.82
66396;BME280;53207;51.378;-1.342;2023-04-26T11:26:52;100360.92;;;19.40;32.85
66396;BME280;53207;51.378;-1.342;2023-04-26T11:29:20;100362.38;;;19.35;32.87
66396;BME280;53207;51.378;-1.342;2023-04-26T11:31:52;100363.41;;;19.31;32.92
66396;BME280;53207;51.378;-1.342;2023-04-26T11:34:21;100364.97;;;19.68;32.78
66396;BME280;53207;51.378;-1.342;2023-04-26T11:36:49;100364.03;;;19.36;32.81
66396;BME280;53207;51.378;-1.342;2023-04-26T11:39:19;100362.86;;;19.37;32.81
66396;BME280;53207;51.378;-1.342;2023-04-26T11:41:46;100360.85;;;19.36;32.82
66396;BME280;53207;51.378;-1.342;2023-04-26T11:44:17;100355.16;;;19.29;32.87
66396;BME280;53207;51.378;-1.342;2023-04-26T11:46:45;100355.69;;;19.35;32.82
66396;BME280;53207;51.378;-1.342;2023-04-26T11:49:14;100351.44;;;19.52;32.91
66396;BME280;53207;51.378;-1.342;2023-04-26T11:51:43;100346.44;;;19.30;32.86
66396;BME280;53207;51.378;-1.342;2023-04-26T11:54:11;100347.91;;;19.28;32.87
66396;BME280;53207;51.378;-1.342;2023-04-26T11:56:52;100352.07;;;19.23;32.94
66396;BME280;53207;51.378;-1.342;2023-04-26T11:59:23;100353.44;;;19.31;32.85
66396;BME280;53207;51.378;-1.342;2023-04-26T12:01:50;100352.06;;;19.40;32.73
66396;BME280;53207;51.378;-1.342;2023-04-26T12:04:18;100351.41;;;19.37;32.78
66396;BME280;53207;51.378;-1.342;2023-04-26T12:06:45;100351.39;;;19.63;32.78
66396;BME280;53207;51.378;-1.342;2023-04-26T12:09:13;100351.20;;;19.59;32.77
66396;BME280;53207;51.378;-1.342;2023-04-26T12:11:40;100353.80;;;19.38;32.74
66396;BME280;53207;51.378;-1.342;2023-04-26T12:14:15;100352.45;;;19.39;32.73
66396;BME280;53207;51.378;-1.342;2023-04-26T12:16:42;100352.39;;;19.37;32.73
66396;BME280;53207;51.378;-1.342;2023-04-26T12:19:09;100344.95;;;19.35;32.74
66396;BME280;53207;51.378;-1.342;2023-04-26T12:21:40;100341.60;;;19.29;32.76
66396;BME280;53207;51.378;-1.342;2023-04-26T12:24:20;100344.62;;;19.19;32.67
66396;BME280;53207;51.378;-1.342;2023-04-26T12:26:48;100344.83;;;19.37;32.71
66396;BME280;53207;51.378;-1.342;2023-04-26T12:29:16;100343.43;;;19.51;32.55
66396;BME280;53207;51.378;-1.342;2023-04-26T12:31:43;100343.21;;;19.49;32.56
66396;BME280;53207;51.378;-1.342;2023-04-26T12:34:10;100343.32;;;19.50;32.55
66396;BME280;53207;51.378;-1.342;2023-04-26T12:36:39;100339.09;;;19.30;32.57
66396;BME280;53207;51.378;-1.342;2023-04-26T12:39:07;100334.68;;;19.61;32.45
66396;BME280;53207;51.378;-1.342;2023-04-26T12:41:34;100331.14;;;19.56;32.54
66396;BME280;53207;51.378;-1.342;2023-04-26T12:44:01;100327.59;;;19.46;32.41
66396;BME280;53207;51.378;-1.342;2023-04-26T12:46:29;100327.29;;;19.66;32.20